Time;durP1;ratioP1;P1;durP2;ratioP2;P2;SDS_P1;SDS_P2;PMS_P1;PMS_P2;Temp;Humidity;BMP_temperature;BMP_pressure;BME280_temperature;BME280_humidity;BME280_pressure;Samples;Min_cycle;Max_cycle;Signal;HPM_P1;HPM_P2
2023/06/07 00:01:36;;;;;;;16.50;7.00;;;11.90;90.80;;;;;;5041105;28;20107;-69
2023/06/07 00:04:02;;;;;;;20.95;7.90;;;12.00;91.00;;;;;;5037879;28;20100;-68
2023/06/07 00:06:28;;;;;;;21.48;7.32;;;11.90;90.90;;;;;;5028995;28;20029;-68
2023/06/07 00:08:55;;;;;;;24.08;8.63;;;11.80;91.30;;;;;;5037227;28;20138;-66
2023/06/07 00:11:21;;;;;;;20.15;8.05;;;11.80;91.60;;;;;;5045170;28;20114;-67
2023/06/07 00:13:48;;;;;;;19.33;7.88;;;11.80;91.60;;;;;;5042558;28;20545;-67
2023/06/07 00:16:13;;;;;;;20.00;8.82;;;11.80;91.50;;;;;;5039754;28;20032;-67
2023/06/07 00:18:40;;;;;;;17.23;7.95;;;11.70;91.90;;;;;;5044532;28;20023;-67
2023/06/07 00:21:06;;;;;;;18.98;8.05;;;11.70;92.10;;;;;;5043921;28;20144;-69
2023/06/07 00:23:32;;;;;;;19.50;8.02;;;11.70;92.10;;;;;;5039730;28;20528;-67
2023/06/07 00:25:59;;;;;;;14.20;7.47;;;11.70;91.80;;;;;;5042471;28;20033;-67
2023/06/07 00:28:25;;;;;;;15.70;7.57;;;11.70;92.00;;;;;;5048097;28;20016;-67
2023/06/07 00:30:50;;;;;;;20.23;7.75;;;11.60;91.90;;;;;;5042695;28;20052;-67
2023/06/07 00:33:16;;;;;;;17.85;8.15;;;11.60;92.00;;;;;;5040425;28;20039;-67
2023/06/07 00:35:41;;;;;;;20.17;7.93;;;11.50;92.50;;;;;;5036416;28;20033;-68
2023/06/07 00:38:06;;;;;;;17.38;8.18;;;11.50;92.10;;;;;;5041352;28;20029;-67
2023/06/07 00:40:32;;;;;;;18.30;7.95;;;11.50;92.50;;;;;;5037737;28;20089;-66
2023/06/07 00:42:57;;;;;;;19.17;7.78;;;11.40;92.20;;;;;;5030248;28;20359;-67
2023/06/07 00:45:23;;;;;;;21.52;8.85;;;11.50;92.20;;;;;;5048466;28;20033;-67
2023/06/07 00:47:48;;;;;;;13.70;8.27;;;11.40;92.20;;;;;;5050887;28;20028;-67
2023/06/07 00:50:15;;;;;;;16.92;9.05;;;11.40;92.50;;;;;;5047935;28;20544;-67
2023/06/07 00:52:40;;;;;;;20.80;8.65;;;11.30;92.70;;;;;;5044764;28;20247;-67
2023/06/07 00:55:08;;;;;;;23.42;9.30;;;11.30;92.80;;;;;;5049957;28;20438;-67
2023/06/07 00:57:35;;;;;;;25.60;8.70;;;11.20;92.70;;;;;;5031783;28;20107;-67
2023/06/07 01:00:01;;;;;;;22.58;8.60;;;11.30;93.00;;;;;;5045980;28;20415;-67
2023/06/07 01:02:29;;;;;;;22.90;9.68;;;11.20;93.10;;;;;;5046639;28;20029;-67
2023/06/07 01:04:55;;;;;;;24.20;9.40;;;11.20;93.30;;;;;;5049173;28;20522;-67
2023/06/07 01:07:24;;;;;;;20.20;9.35;;;11.20;93.60;;;;;;5042879;28;20020;-68
2023/06/07 01:09:51;;;;;;;24.65;9.00;;;11.20;93.60;;;;;;5035791;28;20073;-67
2023/06/07 01:12:18;;;;;;;19.48;10.07;;;11.20;93.50;;;;;;5048688;28;20053;-67
2023/06/07 01:14:44;;;;;;;19.23;9.75;;;11.20;93.70;;;;;;5048587;28;20025;-67
2023/06/07 01:17:12;;;;;;;24.33;9.93;;;11.10;93.90;;;;;;5042579;28;20373;-67
2023/06/07 01:19:39;;;;;;;28.15;9.77;;;11.20;93.90;;;;;;5048019;28;20040;-67
2023/06/07 01:22:06;;;;;;;20.83;9.30;;;11.10;93.60;;;;;;5043028;28;20291;-67
2023/06/07 01:24:37;;;;;;;17.95;9.02;;;11.10;93.30;;;;;;5031358;28;20036;-67
2023/06/07 01:27:07;;;;;;;28.80;9.75;;;11.10;93.40;;;;;;5047835;28;20025;-67
2023/06/07 01:29:33;;;;;;;28.70;10.10;;;11.00;93.50;;;;;;5045763;28;20029;-68
2023/06/07 01:32:02;;;;;;;20.30;8.93;;;11.00;93.90;;;;;;5022256;28;20361;-67
2023/06/07 01:34:28;;;;;;;23.33;9.63;;;11.00;93.70;;;;;;5046097;28;20029;-67
2023/06/07 01:36:55;;;;;;;21.30;9.68;;;11.00;93.80;;;;;;5043721;28;20493;-67
2023/06/07 01:39:21;;;;;;;24.48;10.27;;;11.00;94.00;;;;;;5043234;28;20073;-67
2023/06/07 01:41:49;;;;;;;29.13;10.45;;;11.00;93.90;;;;;;5048550;28;20065;-67
2023/06/07 01:44:15;;;;;;;25.15;9.95;;;11.00;94.00;;;;;;5034876;28;20028;-67
2023/06/07 01:46:45;;;;;;;24.25;10.07;;;10.90;94.00;;;;;;5047936;28;20097;-67
2023/06/07 01:49:12;;;;;;;20.95;9.32;;;10.90;94.20;;;;;;5030402;28;20021;-68
2023/06/07 01:51:37;;;;;;;27.70;9.50;;;10.90;94.40;;;;;;5044713;28;20114;-68
2023/06/07 01:54:04;;;;;;;24.67;10.57;;;10.90;94.20;;;;;;5049240;28;20349;-68
2023/06/07 01:56:55;;;;;;;22.02;10.07;;;10.90;94.60;;;;;;5049309;28;20514;-67
2023/06/07 01:59:33;;;;;;;21.08;9.77;;;10.90;94.40;;;;;;5045099;28;20403;-67
2023/06/07 02:02:11;;;;;;;28.98;9.57;;;10.90;94.50;;;;;;5024470;28;20127;-67
2023/06/07 02:04:42;;;;;;;30.17;9.80;;;10.80;94.60;;;;;;5042500;28;20041;-67
2023/06/07 02:07:12;;;;;;;23.88;10.25;;;10.80;94.50;;;;;;5045789;28;20021;-68
2023/06/07 02:09:39;;;;;;;27.00;10.07;;;10.80;94.50;;;;;;5041649;28;20035;-67
2023/06/07 02:12:07;;;;;;;22.50;9.23;;;10.70;94.50;;;;;;5044667;28;20040;-67
2023/06/07 02:14:33;;;;;;;22.52;9.40;;;10.70;94.50;;;;;;5045979;28;20068;-67
2023/06/07 02:16:58;;;;;;;23.25;9.10;;;10.80;94.70;;;;;;5040913;28;20519;-67
2023/06/07 02:19:24;;;;;;;20.80;8.80;;;10.70;94.60;;;;;;5043989;28;20502;-67
2023/06/07 02:21:50;;;;;;;26.67;9.13;;;10.60;94.60;;;;;;5043087;28;20025;-67
2023/06/07 02:24:17;;;;;;;25.30;9.15;;;10.60;95.00;;;;;;5027491;28;20364;-67
2023/06/07 02:26:42;;;;;;;28.27;9.93;;;10.60;94.90;;;;;;5048016;28;20017;-68
2023/06/07 02:29:08;;;;;;;27.88;8.50;;;10.60;94.90;;;;;;5041548;28;20088;-67
2023/06/07 02:31:34;;;;;;;21.30;8.57;;;10.60;94.80;;;;;;5043565;28;20354;-68
2023/06/07 02:33:59;;;;;;;26.55;9.20;;;10.60;95.00;;;;;;5034134;28;20121;-67
2023/06/07 02:36:25;;;;;;;23.83;8.43;;;10.60;94.90;;;;;;5027328;28;20078;-67
2023/06/07 02:38:51;;;;;;;30.52;9.05;;;10.60;94.90;;;;;;5034619;28;20040;-67
2023/06/07 02:41:17;;;;;;;27.40;8.93;;;10.50;94.90;;;;;;5040355;28;20104;-67
2023/06/07 02:43:44;;;;;;;26.50;9.05;;;10.50;94.90;;;;;;5044249;28;20108;-67
2023/06/07 02:46:11;;;;;;;35.17;9.23;;;10.40;94.90;;;;;;5025852;28;20504;-67
2023/06/07 02:48:37;;;;;;;21.45;9.43;;;10.40;94.90;;;;;;5044767;28;20471;-68
2023/06/07 02:51:03;;;;;;;28.30;9.32;;;10.50;95.20;;;;;;5043233;28;20047;-68
2023/06/07 02:53:28;;;;;;;24.60;8.10;;;10.40;95.10;;;;;;5043859;28;20354;-67
2023/06/07 02:55:54;;;;;;;24.80;8.43;;;10.40;95.10;;;;;;5047476;28;20024;-67
2023/06/07 02:58:19;;;;;;;28.13;8.13;;;10.40;95.30;;;;;;5040824;28;20131;-67
2023/06/07 03:00:46;;;;;;;23.73;8.30;;;10.40;95.20;;;;;;5041107;28;20040;-67
2023/06/07 03:03:12;;;;;;;27.35;8.48;;;10.40;95.30;;;;;;5057010;28;20337;-67
2023/06/07 03:05:40;;;;;;;28.63;7.85;;;10.40;95.20;;;;;;5042968;28;20016;-67
2023/06/07 03:08:10;;;;;;;28.35;9.25;;;10.40;95.40;;;;;;5037417;28;20025;-67
2023/06/07 03:10:35;;;;;;;24.02;8.38;;;10.40;95.50;;;;;;5039442;28;20041;-67
2023/06/07 03:13:01;;;;;;;26.10;8.63;;;10.40;95.50;;;;;;5048054;28;20124;-67
2023/06/07 03:15:27;;;;;;;24.50;8.73;;;10.40;95.50;;;;;;5042336;28;20445;-67
2023/06/07 03:17:53;;;;;;;30.52;8.77;;;10.40;95.40;;;;;;5037399;28;20021;-69
2023/06/07 03:20:20;;;;;;;29.52;8.95;;;10.40;95.40;;;;;;5046503;28;20090;-67
2023/06/07 03:22:46;;;;;;;27.05;8.82;;;10.40;95.50;;;;;;5042376;28;20033;-68
2023/06/07 03:25:11;;;;;;;21.13;8.73;;;10.40;95.50;;;;;;5049643;28;20040;-67
2023/06/07 03:27:45;;;;;;;25.50;8.45;;;10.40;95.50;;;;;;5064863;28;20854;-65
2023/06/07 03:30:11;;;;;;;20.98;7.43;;;10.40;95.50;;;;;;5062194;28;20055;-66
2023/06/07 03:32:36;;;;;;;32.90;8.43;;;10.40;95.40;;;;;;5065660;28;20044;-66
2023/06/07 03:35:02;;;;;;;34.42;8.38;;;10.50;95.40;;;;;;5056693;28;20179;-66
2023/06/07 03:37:28;;;;;;;31.90;9.73;;;10.50;95.50;;;;;;5052789;28;20029;-67
2023/06/07 03:39:53;;;;;;;30.38;8.45;;;10.50;95.50;;;;;;5056835;28;20124;-66
2023/06/07 03:42:19;;;;;;;25.33;9.10;;;10.50;95.10;;;;;;5055440;28;20032;-66
2023/06/07 03:44:44;;;;;;;29.30;9.13;;;10.50;95.40;;;;;;5056539;28;20033;-66
2023/06/07 03:47:10;;;;;;;33.55;9.32;;;10.60;95.40;;;;;;5057051;28;20098;-66
2023/06/07 03:49:35;;;;;;;22.60;8.50;;;10.60;95.60;;;;;;5056154;28;20146;-66
2023/06/07 03:52:01;;;;;;;27.15;8.40;;;10.60;95.40;;;;;;5056137;28;20517;-67
2023/06/07 03:54:26;;;;;;;31.88;7.82;;;10.60;95.50;;;;;;5057818;28;20367;-66
2023/06/07 03:56:52;;;;;;;33.25;9.02;;;10.70;95.50;;;;;;5050540;28;20498;-66
2023/06/07 03:59:20;;;;;;;25.15;7.75;;;10.70;95.50;;;;;;5052228;28;20070;-66
2023/06/07 04:01:48;;;;;;;19.40;7.30;;;10.70;95.40;;;;;;5050164;28;20487;-66
2023/06/07 04:04:13;;;;;;;22.38;7.07;;;10.80;95.40;;;;;;5052248;28;20036;-66
2023/06/07 04:06:39;;;;;;;27.30;7.72;;;10.80;95.40;;;;;;5058581;28;20032;-67
2023/06/07 04:09:07;;;;;;;31.35;7.55;;;10.90;95.30;;;;;;5045454;28;20446;-66
2023/06/07 04:11:33;;;;;;;23.52;7.25;;;10.80;95.30;;;;;;5052628;28;20056;-67
2023/06/07 04:13:58;;;;;;;26.90;8.07;;;10.80;95.20;;;;;;5057041;28;20024;-66
2023/06/07 04:16:24;;;;;;;27.80;7.32;;;10.90;95.30;;;;;;5053369;28;20040;-66
2023/06/07 04:18:49;;;;;;;26.30;7.88;;;10.90;95.10;;;;;;5060435;28;20056;-68
2023/06/07 04:21:15;;;;;;;27.48;7.15;;;10.90;95.30;;;;;;5051466;28;20180;-66
2023/06/07 04:23:41;;;;;;;19.88;7.00;;;10.90;95.10;;;;;;5042446;28;20029;-66
2023/06/07 04:26:08;;;;;;;26.98;7.47;;;11.00;95.30;;;;;;5049741;28;20052;-66
2023/06/07 04:28:34;;;;;;;25.15;7.25;;;11.00;95.20;;;;;;5055545;28;20238;-68
2023/06/07 04:31:00;;;;;;;35.35;7.47;;;11.10;95.10;;;;;;5052556;28;20017;-68
2023/06/07 04:33:27;;;;;;;28.30;6.93;;;11.10;95.00;;;;;;5041642;28;20029;-67
2023/06/07 04:36:02;;;;;;;21.65;7.35;;;11.10;95.00;;;;;;5043596;28;20045;-68
2023/06/07 04:38:29;;;;;;;25.13;6.35;;;11.20;94.90;;;;;;5033054;28;20171;-67
2023/06/07 04:40:55;;;;;;;27.65;7.78;;;11.20;95.00;;;;;;5034568;28;20123;-69
2023/06/07 04:43:23;;;;;;;25.42;6.53;;;11.30;94.90;;;;;;5041339;28;20120;-69
2023/06/07 04:45:54;;;;;;;22.00;7.40;;;11.40;94.80;;;;;;5038809;28;20425;-69
2023/06/07 04:48:23;;;;;;;;;;;11.50;94.70;;;;;;5037114;28;20469;-69
2023/06/07 04:50:50;;;;;;;17.08;6.38;;;11.50;94.70;;;;;;5047602;28;19971;-68
2023/06/07 04:53:19;;;;;;;23.40;6.80;;;11.60;94.70;;;;;;5029263;28;20029;-70
2023/06/07 04:55:49;;;;;;;23.75;6.68;;;11.60;94.40;;;;;;5041246;28;20029;-68
2023/06/07 04:58:16;;;;;;;21.70;6.57;;;11.70;94.40;;;;;;5036350;28;20493;-69
2023/06/07 05:00:43;;;;;;;26.10;7.00;;;11.70;94.30;;;;;;5030854;28;20405;-70
2023/06/07 05:03:13;;;;;;;33.55;6.93;;;11.80;94.10;;;;;;5029278;28;20032;-69
2023/06/07 05:05:40;;;;;;;22.08;6.57;;;11.80;94.10;;;;;;5034804;28;20148;-69
2023/06/07 05:08:05;;;;;;;19.83;6.70;;;11.90;93.90;;;;;;5030280;28;20085;-69
2023/06/07 05:10:31;;;;;;;23.38;6.63;;;12.00;94.00;;;;;;5033347;28;20126;-69
2023/06/07 05:12:57;;;;;;;22.20;7.40;;;12.00;93.70;;;;;;5030463;28;20033;-71
2023/06/07 05:15:23;;;;;;;24.65;8.30;;;12.00;93.70;;;;;;5030315;28;20032;-68
2023/06/07 05:17:49;;;;;;;26.05;7.85;;;12.10;93.60;;;;;;5029624;28;20025;-68
2023/06/07 05:20:15;;;;;;;22.10;7.82;;;12.10;93.50;;;;;;5036258;28;20081;-68
2023/06/07 05:22:42;;;;;;;21.05;7.35;;;12.10;93.10;;;;;;5032096;28;20033;-68
2023/06/07 05:25:09;;;;;;;25.02;7.60;;;12.10;93.20;;;;;;5035317;28;20031;-69
2023/06/07 05:27:36;;;;;;;17.65;7.75;;;12.30;93.00;;;;;;5037849;28;20208;-70
2023/06/07 05:30:04;;;;;;;22.30;8.40;;;12.30;92.80;;;;;;5028528;28;20502;-68
2023/06/07 05:32:30;;;;;;;22.83;9.43;;;12.40;92.70;;;;;;5028516;28;20039;-69
2023/06/07 05:34:57;;;;;;;31.10;9.57;;;12.50;92.30;;;;;;5034282;28;20039;-70
2023/06/07 05:37:24;;;;;;;26.40;9.90;;;12.40;92.00;;;;;;5035551;28;20300;-68
2023/06/07 05:39:49;;;;;;;34.50;10.85;;;12.50;92.50;;;;;;5039717;28;20041;-69
2023/06/07 05:42:15;;;;;;;28.23;9.93;;;12.50;91.90;;;;;;5033007;28;20124;-68
2023/06/07 05:44:41;;;;;;;28.85;10.73;;;12.50;92.50;;;;;;5040490;28;20039;-70
2023/06/07 05:47:07;;;;;;;27.08;10.85;;;12.60;92.10;;;;;;5037893;28;20033;-69
2023/06/07 05:49:32;;;;;;;34.33;11.88;;;12.90;91.50;;;;;;5039671;28;20080;-67
2023/06/07 05:51:58;;;;;;;33.42;11.23;;;13.00;91.40;;;;;;5037924;28;20648;-67
2023/06/07 05:54:23;;;;;;;25.38;10.70;;;12.90;91.00;;;;;;5043948;28;20040;-67
2023/06/07 05:56:49;;;;;;;24.67;11.90;;;13.00;90.80;;;;;;5055960;28;20394;-67
2023/06/07 05:59:14;;;;;;;24.38;11.57;;;13.00;90.30;;;;;;5034520;28;20341;-67
2023/06/07 06:01:40;;;;;;;24.27;11.43;;;13.00;89.70;;;;;;5038261;28;20035;-68
2023/06/07 06:04:06;;;;;;;26.25;11.38;;;13.00;89.10;;;;;;5040891;28;20087;-68
2023/06/07 06:06:31;;;;;;;25.85;10.93;;;13.20;88.90;;;;;;5040196;28;20044;-69
2023/06/07 06:08:57;;;;;;;33.83;11.07;;;13.40;88.70;;;;;;5029337;28;20113;-68
2023/06/07 06:11:22;;;;;;;20.65;10.70;;;13.40;88.60;;;;;;5048796;28;20021;-67
2023/06/07 06:13:48;;;;;;;28.13;11.15;;;13.50;87.90;;;;;;5030023;28;20501;-67
2023/06/07 06:16:14;;;;;;;22.05;10.60;;;13.50;88.00;;;;;;5033303;28;20027;-67
2023/06/07 06:18:41;;;;;;;25.50;11.77;;;13.60;87.40;;;;;;5035865;28;20037;-68
2023/06/07 06:21:07;;;;;;;27.85;12.65;;;13.70;87.50;;;;;;5041624;28;20105;-68
2023/06/07 06:23:32;;;;;;;27.60;11.32;;;13.70;87.30;;;;;;5036595;28;20131;-68
2023/06/07 06:25:58;;;;;;;24.40;11.40;;;14.00;87.10;;;;;;5041383;28;20064;-68
2023/06/07 06:28:23;;;;;;;21.77;10.77;;;14.00;85.70;;;;;;5031627;28;20062;-67
2023/06/07 06:30:50;;;;;;;26.83;11.68;;;14.10;86.30;;;;;;5032772;28;20386;-68
2023/06/07 06:33:16;;;;;;;24.77;11.10;;;14.30;85.60;;;;;;5030393;28;20033;-69
2023/06/07 06:35:41;;;;;;;21.52;10.70;;;14.50;85.30;;;;;;5037501;28;20029;-68
2023/06/07 06:38:07;;;;;;;23.50;11.38;;;14.60;84.10;;;;;;5036561;28;20021;-68
2023/06/07 06:40:32;;;;;;;26.20;12.30;;;14.60;84.00;;;;;;5032840;28;20033;-71
2023/06/07 06:42:59;;;;;;;27.77;11.90;;;14.80;84.00;;;;;;5040039;28;20099;-72
2023/06/07 06:45:25;;;;;;;22.73;11.05;;;14.60;83.70;;;;;;5026275;28;20091;-69
2023/06/07 06:47:51;;;;;;;26.55;11.00;;;14.90;83.80;;;;;;5028787;28;20021;-74
2023/06/07 06:50:17;;;;;;;29.60;11.27;;;15.10;82.70;;;;;;5038126;28;20113;-70
2023/06/07 06:52:42;;;;;;;23.83;11.15;;;15.50;82.80;;;;;;5026875;28;20132;-70
2023/06/07 06:55:08;;;;;;;24.85;10.50;;;15.60;81.90;;;;;;5033395;28;20100;-70
2023/06/07 06:57:35;;;;;;;20.95;9.30;;;15.60;81.10;;;;;;5032958;28;20152;-70
2023/06/07 07:00:04;;;;;;;24.40;9.43;;;15.70;82.10;;;;;;5030461;28;20013;-72
2023/06/07 07:02:30;;;;;;;23.50;10.05;;;15.70;79.10;;;;;;5025643;28;20099;-70
2023/06/07 07:04:55;;;;;;;19.33;9.80;;;15.50;79.50;;;;;;5032244;28;20442;-70
2023/06/07 07:07:21;;;;;;;19.30;10.05;;;15.60;79.90;;;;;;5029998;28;20037;-70
2023/06/07 07:09:46;;;;;;;18.73;8.77;;;15.90;79.80;;;;;;5033204;28;20309;-72
2023/06/07 07:12:12;;;;;;;17.83;8.93;;;16.20;80.70;;;;;;5039804;28;20116;-69
2023/06/07 07:14:37;;;;;;;21.20;8.55;;;16.50;80.40;;;;;;5041096;28;20041;-71
2023/06/07 07:17:03;;;;;;;20.33;8.75;;;16.80;78.70;;;;;;5042983;28;20327;-70
2023/06/07 07:19:28;;;;;;;17.25;7.82;;;17.00;76.60;;;;;;5045862;28;20025;-70
2023/06/07 07:21:54;;;;;;;15.55;7.68;;;17.10;77.10;;;;;;5035657;28;20128;-71
2023/06/07 07:24:19;;;;;;;20.95;7.93;;;17.40;75.70;;;;;;5049641;28;20132;-70
2023/06/07 07:26:45;;;;;;;21.45;8.18;;;17.30;74.90;;;;;;5031275;28;20442;-71
2023/06/07 07:29:11;;;;;;;19.85;7.95;;;17.40;74.50;;;;;;5039136;28;20029;-71
2023/06/07 07:31:37;;;;;;;15.52;8.10;;;17.50;74.30;;;;;;5041247;28;20113;-70
2023/06/07 07:34:03;;;;;;;15.40;7.50;;;17.60;74.00;;;;;;5027519;28;20360;-70
2023/06/07 07:36:33;;;;;;;18.73;8.68;;;17.80;73.80;;;;;;5037835;28;20021;-71
2023/06/07 07:38:59;;;;;;;19.40;7.43;;;17.90;72.90;;;;;;5041257;28;20036;-68
2023/06/07 07:41:25;;;;;;;16.23;6.53;;;18.20;75.10;;;;;;5038952;28;20129;-70
2023/06/07 07:43:51;;;;;;;17.50;6.60;;;18.60;73.10;;;;;;5040783;28;20028;-68
2023/06/07 07:46:17;;;;;;;19.15;6.72;;;18.30;71.30;;;;;;5034609;28;20037;-68
2023/06/07 07:48:43;;;;;;;17.27;7.28;;;18.40;70.50;;;;;;5033463;28;20044;-68
2023/06/07 07:51:09;;;;;;;14.13;6.78;;;18.50;70.80;;;;;;5041561;28;20108;-67
2023/06/07 07:53:34;;;;;;;16.23;7.00;;;18.60;70.10;;;;;;5040330;28;20120;-68
2023/06/07 07:56:00;;;;;;;15.60;7.28;;;18.90;69.20;;;;;;5037846;28;20033;-67
2023/06/07 07:58:25;;;;;;;15.93;6.90;;;18.90;68.20;;;;;;5038874;28;20033;-68
2023/06/07 08:00:52;;;;;;;18.10;6.90;;;19.50;71.90;;;;;;5033127;28;20142;-67
2023/06/07 08:03:18;;;;;;;15.02;6.80;;;19.70;68.70;;;;;;5028043;28;20021;-68
2023/06/07 08:05:43;;;;;;;21.50;6.75;;;19.60;67.40;;;;;;5035899;28;20425;-68
2023/06/07 08:08:08;;;;;;;13.85;5.07;;;20.00;68.20;;;;;;5033697;28;20027;-68
2023/06/07 08:10:34;;;;;;;14.45;5.63;;;20.00;66.50;;;;;;5045560;28;20124;-68
2023/06/07 08:13:00;;;;;;;21.25;5.50;;;20.00;64.70;;;;;;5037715;28;20065;-69
2023/06/07 08:15:26;;;;;;;12.70;5.50;;;20.00;66.80;;;;;;5032716;28;20142;-68
2023/06/07 08:17:51;;;;;;;15.73;5.60;;;19.80;64.30;;;;;;5030709;28;20369;-68
2023/06/07 08:20:17;;;;;;;13.68;5.32;;;19.90;64.80;;;;;;5032972;28;20144;-68
2023/06/07 08:22:42;;;;;;;13.75;5.55;;;20.00;65.90;;;;;;5030461;28;20470;-68
2023/06/07 08:25:09;;;;;;;11.20;4.65;;;20.30;63.60;;;;;;5033869;28;20063;-67
2023/06/07 08:27:35;;;;;;;13.95;4.78;;;20.60;65.10;;;;;;5032527;28;20040;-68
2023/06/07 08:30:01;;;;;;;14.15;4.97;;;21.20;65.50;;;;;;5034937;28;20029;-68
2023/06/07 08:32:27;;;;;;;13.20;4.65;;;21.00;61.30;;;;;;5041858;28;20033;-69
2023/06/07 08:34:52;;;;;;;11.20;5.18;;;21.00;61.20;;;;;;5041231;28;20472;-68
2023/06/07 08:37:18;;;;;;;11.90;4.10;;;21.00;61.20;;;;;;5041498;28;20102;-70
2023/06/07 08:39:43;;;;;;;17.65;4.93;;;21.10;62.30;;;;;;5039869;28;20119;-68
2023/06/07 08:42:09;;;;;;;14.00;4.78;;;21.00;61.50;;;;;;5039740;28;20413;-68
2023/06/07 08:44:35;;;;;;;9.88;4.57;;;21.20;61.10;;;;;;5042088;28;20109;-68
2023/06/07 08:47:02;;;;;;;12.40;4.88;;;21.20;61.00;;;;;;5042531;28;20113;-67
2023/06/07 08:49:31;;;;;;;16.13;5.65;;;21.80;60.70;;;;;;5040426;28;20024;-68
2023/06/07 08:51:58;;;;;;;12.60;5.55;;;21.80;60.20;;;;;;5038092;28;20094;-67
2023/06/07 08:54:26;;;;;;;14.60;4.97;;;21.90;59.90;;;;;;5031781;28;20450;-67
2023/06/07 08:56:54;;;;;;;11.75;4.82;;;22.00;58.70;;;;;;5036061;28;20061;-67
2023/06/07 08:59:21;;;;;;;15.50;5.22;;;22.00;58.80;;;;;;5030519;28;20021;-67
2023/06/07 09:01:47;;;;;;;15.98;5.10;;;22.30;59.40;;;;;;5046406;28;20326;-67
2023/06/07 09:04:15;;;;;;;13.73;5.10;;;22.50;58.20;;;;;;5034665;28;20017;-67
2023/06/07 09:06:41;;;;;;;11.75;4.88;;;22.00;58.30;;;;;;5032850;28;20030;-71
2023/06/07 09:09:06;;;;;;;14.63;5.03;;;22.00;58.90;;;;;;5035136;28;20068;-68
2023/06/07 09:11:32;;;;;;;14.65;4.82;;;22.10;59.10;;;;;;5051383;28;20132;-67
2023/06/07 09:13:58;;;;;;;13.60;5.20;;;22.50;58.20;;;;;;5037161;28;20029;-67
2023/06/07 09:16:25;;;;;;;16.38;5.28;;;22.50;57.50;;;;;;5030993;28;20435;-68
2023/06/07 09:18:53;;;;;;;15.40;5.10;;;22.30;58.20;;;;;;5029895;28;20432;-67
2023/06/07 09:21:23;;;;;;;12.55;5.25;;;22.40;58.00;;;;;;5038386;28;20029;-67
2023/06/07 09:23:50;;;;;;;14.30;4.97;;;22.50;58.20;;;;;;5043574;28;20025;-67
2023/06/07 09:26:16;;;;;;;10.18;4.35;;;22.70;56.60;;;;;;5046013;28;20464;-67
2023/06/07 09:28:42;;;;;;;10.70;4.28;;;22.80;57.20;;;;;;5046276;28;20017;-69
2023/06/07 09:31:08;;;;;;;11.18;4.10;;;23.00;56.50;;;;;;5038794;28;20040;-69
2023/06/07 09:33:34;;;;;;;10.15;4.18;;;22.90;55.90;;;;;;5042128;28;20043;-68
2023/06/07 09:36:12;;;;;;;10.00;4.20;;;23.00;56.00;;;;;;5037627;28;20032;-68
2023/06/07 09:38:38;;;;;;;9.88;4.60;;;23.30;53.80;;;;;;5032141;28;20104;-69
2023/06/07 09:41:05;;;;;;;13.98;4.30;;;23.20;54.30;;;;;;5035287;28;20020;-68
2023/06/07 09:43:50;;;;;;;13.32;4.43;;;23.20;53.90;;;;;;5043514;28;20025;-69
2023/06/07 09:46:19;;;;;;;11.50;3.95;;;23.30;54.60;;;;;;5034095;28;20354;-68
2023/06/07 09:48:50;;;;;;;14.77;3.57;;;23.30;54.30;;;;;;5045058;28;20064;-71
2023/06/07 09:51:18;;;;;;;;;;;23.90;54.40;;;;;;5043983;28;20028;-69
2023/06/07 09:53:56;;;;;;;9.32;3.38;;;24.20;54.00;;;;;;5036098;28;19908;-69
2023/06/07 09:56:23;;;;;;;10.77;4.28;;;24.10;52.00;;;;;;5035062;28;20124;-68
2023/06/07 09:59:07;;;;;;;7.95;3.00;;;24.20;51.30;;;;;;5037990;28;20085;-68
2023/06/07 10:01:52;;;;;;;11.13;3.90;;;23.90;53.00;;;;;;5046666;28;20311;-69
2023/06/07 10:04:18;;;;;;;11.32;3.53;;;23.80;52.80;;;;;;5043300;28;20094;-68
2023/06/07 10:06:45;;;;;;;10.63;3.80;;;23.70;52.40;;;;;;5027645;28;20327;-70
2023/06/07 10:09:11;;;;;;;11.05;3.53;;;23.80;52.80;;;;;;5028831;28;20140;-68
2023/06/07 10:11:41;;;;;;;9.18;3.30;;;23.90;52.50;;;;;;5047653;28;20037;-69
2023/06/07 10:14:10;;;;;;;11.40;3.55;;;24.10;51.70;;;;;;5038818;28;20127;-69
2023/06/07 10:16:39;;;;;;;12.07;3.00;;;24.40;51.60;;;;;;5029785;28;20187;-71
2023/06/07 10:19:40;;;;;;;9.32;3.53;;;24.50;51.40;;;;;;5041027;28;20126;-69
2023/06/07 10:22:11;;;;;;;10.57;3.70;;;24.70;50.30;;;;;;5033646;28;20142;-69
2023/06/07 10:25:13;;;;;;;12.27;3.90;;;24.90;49.10;;;;;;5046970;28;20794;-68
2023/06/07 10:27:46;;;;;;;10.40;3.58;;;24.80;50.70;;;;;;5028135;28;20350;-68
2023/06/07 10:30:13;;;;;;;11.68;3.60;;;24.80;51.10;;;;;;5036277;28;20057;-68
2023/06/07 10:32:39;;;;;;;8.02;3.20;;;25.20;50.30;;;;;;5029740;28;20034;-68
2023/06/07 10:35:10;;;;;;;8.32;3.45;;;25.70;49.20;;;;;;5054570;28;20087;-69
2023/06/07 10:37:37;;;;;;;8.30;3.30;;;25.90;48.00;;;;;;5046071;28;20047;-69
2023/06/07 10:40:10;;;;;;;11.65;3.17;;;25.70;47.90;;;;;;5039769;28;20025;-69
2023/06/07 10:42:46;;;;;;;8.18;3.38;;;26.10;48.30;;;;;;5039630;28;20582;-68
2023/06/07 10:45:15;;;;;;;11.07;3.40;;;26.20;47.50;;;;;;5040114;28;20021;-70
2023/06/07 10:47:41;;;;;;;8.20;3.15;;;26.40;47.70;;;;;;5032845;28;20044;-68
2023/06/07 10:50:07;;;;;;;6.93;3.13;;;26.50;46.50;;;;;;5042707;28;20418;-68
2023/06/07 10:52:33;;;;;;;6.28;2.83;;;26.20;47.30;;;;;;5037771;28;20033;-69
2023/06/07 10:54:58;;;;;;;7.43;3.15;;;26.60;46.60;;;;;;5037004;28;20106;-68
2023/06/07 10:57:37;;;;;;;9.30;3.42;;;26.20;47.50;;;;;;5033706;28;20024;-71
2023/06/07 11:00:29;;;;;;;8.55;3.70;;;26.40;47.50;;;;;;5040959;28;20116;-68
2023/06/07 11:03:04;;;;;;;8.27;3.10;;;26.50;46.80;;;;;;5036937;28;20380;-68
2023/06/07 11:05:51;;;;;;;9.57;3.35;;;26.50;46.60;;;;;;5037703;28;20140;-69
2023/06/07 11:08:27;;;;;;;7.00;3.33;;;27.00;47.10;;;;;;5030741;28;20057;-69
2023/06/07 11:10:59;;;;;;;7.57;2.90;;;26.60;46.10;;;;;;5040190;28;20032;-69
2023/06/07 11:13:43;;;;;;;9.35;2.80;;;26.90;47.70;;;;;;5042355;28;20024;-72
2023/06/07 11:16:24;;;;;;;6.05;2.72;;;26.50;47.40;;;;;;5038822;28;20033;-69
2023/06/07 11:18:56;;;;;;;10.30;3.17;;;26.80;45.70;;;;;;5031085;28;20040;-69
2023/06/07 11:21:28;;;;;;;9.35;3.22;;;27.00;45.10;;;;;;5033913;28;20025;-69
2023/06/07 11:24:12;;;;;;;8.23;3.50;;;27.00;46.40;;;;;;5043252;28;20427;-69
2023/06/07 11:26:38;;;;;;;7.32;2.78;;;26.90;45.40;;;;;;5030329;28;20475;-69
2023/06/07 11:29:05;;;;;;;10.32;3.22;;;27.20;45.20;;;;;;5035837;28;20053;-69
2023/06/07 11:31:31;;;;;;;11.55;3.10;;;27.40;45.10;;;;;;5034227;28;20044;-69
2023/06/07 11:33:57;;;;;;;8.10;2.70;;;27.70;44.90;;;;;;5028037;28;20087;-69
2023/06/07 11:36:23;;;;;;;7.10;2.70;;;27.80;45.10;;;;;;5036520;28;20022;-69
2023/06/07 11:38:49;;;;;;;6.95;3.08;;;27.60;44.90;;;;;;5031353;28;20105;-69
2023/06/07 11:41:14;;;;;;;9.30;2.70;;;27.30;44.20;;;;;;5032561;28;20028;-68
2023/06/07 11:43:40;;;;;;;11.65;3.60;;;27.90;44.70;;;;;;5043602;28;20326;-69
2023/06/07 11:46:06;;;;;;;11.00;3.50;;;27.50;43.80;;;;;;5035914;28;20342;-69
2023/06/07 11:48:32;;;;;;;6.72;3.20;;;27.30;44.70;;;;;;5050896;28;20036;-68
2023/06/07 11:50:59;;;;;;;12.32;3.38;;;27.70;44.30;;;;;;5048599;28;20365;-69
2023/06/07 11:53:28;;;;;;;6.63;2.92;;;27.90;43.70;;;;;;5037317;28;20108;-70
2023/06/07 11:55:55;;;;;;;6.53;2.95;;;27.70;43.40;;;;;;5050046;28;20100;-69
2023/06/07 11:58:22;;;;;;;6.35;2.65;;;28.60;41.50;;;;;;5045607;28;20440;-69
2023/06/07 12:00:49;;;;;;;7.05;3.20;;;28.10;42.20;;;;;;5040187;28;20036;-69
2023/06/07 12:03:16;;;;;;;8.40;2.70;;;28.80;43.10;;;;;;5048001;28;20025;-70
2023/06/07 12:05:43;;;;;;;10.35;3.28;;;28.20;41.00;;;;;;5048408;28;20099;-70
2023/06/07 12:08:15;;;;;;;6.03;2.60;;;28.40;40.60;;;;;;5032888;28;20017;-73
2023/06/07 12:10:40;;;;;;;7.15;2.63;;;28.90;41.90;;;;;;5048016;28;20410;-69
2023/06/07 12:13:15;;;;;;;12.02;3.13;;;29.10;40.30;;;;;;5037253;28;20028;-70
2023/06/07 12:15:53;;;;;;;7.40;2.90;;;29.00;39.00;;;;;;5032860;28;20812;-70
2023/06/07 12:18:22;;;;;;;6.78;2.63;;;29.40;40.70;;;;;;5036926;28;20454;-69
2023/06/07 12:20:48;;;;;;;6.30;2.60;;;30.00;39.20;;;;;;5042288;28;20028;-71
2023/06/07 12:23:14;;;;;;;8.15;2.78;;;29.60;38.80;;;;;;5028733;28;20025;-69
2023/06/07 12:25:41;;;;;;;6.13;2.53;;;29.30;39.20;;;;;;5031467;28;20079;-69
2023/06/07 12:28:11;;;;;;;7.90;3.00;;;29.50;39.00;;;;;;5040795;28;20069;-69
2023/06/07 12:30:38;;;;;;;9.43;3.15;;;29.40;37.70;;;;;;5034495;28;20060;-69
2023/06/07 12:33:04;;;;;;;6.53;3.03;;;29.90;38.40;;;;;;5034494;28;20051;-69
2023/06/07 12:35:38;;;;;;;9.48;2.90;;;30.60;39.00;;;;;;5032736;28;20045;-68
2023/06/07 12:38:05;;;;;;;7.72;2.90;;;31.20;37.00;;;;;;5036154;28;20335;-70
2023/06/07 12:40:30;;;;;;;9.68;3.05;;;30.40;37.00;;;;;;5040057;28;20123;-69